Time;durP1;ratioP1;P1;durP2;ratioP2;P2;SDS_P1;SDS_P2;PMS_P1;PMS_P2;Temp;Humidity;BMP_temperature;BMP_pressure;BME280_temperature;BME280_humidity;BME280_pressure;Samples;Min_cycle;Max_cycle;Signal;HPM_P1;HPM_P2
2021/08/11 00:00:20;;;;;;;15.20;5.03;;;15.60;99.90;;;;;;4989194;28;25123;-67
2021/08/11 00:02:46;;;;;;;9.68;5.18;;;15.50;99.90;;;;;;4987524;28;25096;-68
2021/08/11 00:05:11;;;;;;;10.02;5.55;;;15.40;99.90;;;;;;4990571;28;25071;-67
2021/08/11 00:07:37;;;;;;;12.25;4.85;;;15.30;99.90;;;;;;4993100;28;25083;-66
2021/08/11 00:10:05;;;;;;;8.50;4.97;;;15.30;99.90;;;;;;4996998;28;25061;-68
2021/08/11 00:12:30;;;;;;;6.28;4.22;;;15.30;99.90;;;;;;4992769;28;25080;-68
2021/08/11 00:14:56;;;;;;;8.95;4.80;;;15.40;99.90;;;;;;4990925;28;25068;-67
2021/08/11 00:17:22;;;;;;;9.65;5.50;;;15.40;99.90;;;;;;4992962;28;25050;-66
2021/08/11 00:19:48;;;;;;;7.45;4.82;;;15.40;99.90;;;;;;4992464;28;25051;-66
2021/08/11 00:22:13;;;;;;;8.38;4.47;;;15.50;99.90;;;;;;4994148;28;25075;-68
2021/08/11 00:24:39;;;;;;;8.73;5.55;;;15.40;99.90;;;;;;4993573;28;25110;-68
2021/08/11 00:27:05;;;;;;;10.30;5.03;;;15.50;99.90;;;;;;4992280;28;25147;-68
2021/08/11 00:29:30;;;;;;;9.48;5.32;;;15.60;99.90;;;;;;4989388;28;25102;-68
2021/08/11 00:31:56;;;;;;;10.38;5.20;;;15.70;99.90;;;;;;4986617;28;25069;-69
2021/08/11 00:34:21;;;;;;;10.85;5.82;;;15.80;99.90;;;;;;4989613;28;25078;-67
2021/08/11 00:36:47;;;;;;;13.65;5.22;;;15.70;99.90;;;;;;4988716;28;25140;-67
2021/08/11 00:39:12;;;;;;;14.13;6.05;;;15.60;99.90;;;;;;4988175;28;25064;-68
2021/08/11 00:41:44;;;;;;;17.98;5.78;;;15.50;99.90;;;;;;4990106;28;25040;-69
2021/08/11 00:44:14;;;;;;;10.85;5.85;;;15.40;99.90;;;;;;4988759;28;25070;-67
2021/08/11 00:46:41;;;;;;;8.63;5.93;;;15.50;99.90;;;;;;4989557;28;25135;-70
2021/08/11 00:49:10;;;;;;;8.10;5.70;;;15.70;99.90;;;;;;4989083;28;25079;-68
2021/08/11 00:51:36;;;;;;;15.15;6.15;;;15.60;99.90;;;;;;4987819;28;25045;-68
2021/08/11 00:54:05;;;;;;;11.63;6.05;;;15.70;99.90;;;;;;4989268;28;25151;-67
2021/08/11 00:56:32;;;;;;;11.77;6.65;;;15.70;99.90;;;;;;4988610;28;25041;-67
2021/08/11 00:58:59;;;;;;;14.00;6.28;;;15.70;99.90;;;;;;4989388;28;25056;-67
2021/08/11 01:01:26;;;;;;;10.20;6.72;;;15.50;99.90;;;;;;4986120;28;25051;-67
2021/08/11 01:03:54;;;;;;;11.50;6.80;;;15.40;99.90;;;;;;4988958;28;25101;-67
2021/08/11 01:06:21;;;;;;;10.38;6.68;;;15.40;99.90;;;;;;4987004;28;25082;-66
2021/08/11 01:08:47;;;;;;;12.90;6.70;;;15.40;99.90;;;;;;4988916;28;25078;-66
2021/08/11 01:11:13;;;;;;;9.55;6.13;;;15.40;99.90;;;;;;4987276;28;25066;-70
2021/08/11 01:13:41;;;;;;;14.82;6.90;;;15.40;99.90;;;;;;4988284;28;25071;-68
2021/08/11 01:16:06;;;;;;;13.45;7.30;;;15.30;99.90;;;;;;4988151;28;25084;-67
2021/08/11 01:18:32;;;;;;;14.88;7.25;;;15.30;99.90;;;;;;4976449;28;25160;-66
2021/08/11 01:21:12;;;;;;;15.00;7.90;;;15.30;99.90;;;;;;4989470;28;25081;-67
2021/08/11 01:24:05;;;;;;;15.10;8.02;;;15.30;99.90;;;;;;4987671;28;25068;-68
2021/08/11 01:26:47;;;;;;;13.55;6.97;;;15.20;99.90;;;;;;4981882;28;25065;-67
2021/08/11 01:29:19;;;;;;;13.20;8.73;;;15.20;99.90;;;;;;4983210;28;25077;-68
2021/08/11 01:32:03;;;;;;;17.98;8.57;;;15.20;99.90;;;;;;4989447;28;25137;-66
2021/08/11 01:34:39;;;;;;;15.40;10.15;;;15.10;99.90;;;;;;4987654;28;25068;-68
2021/08/11 01:37:09;;;;;;;16.40;10.73;;;15.10;99.90;;;;;;4989951;28;25068;-67
2021/08/11 01:39:38;;;;;;;18.98;9.65;;;15.10;99.90;;;;;;4996605;28;25058;-67
2021/08/11 01:42:38;;;;;;;16.85;9.32;;;15.20;99.90;;;;;;4986526;28;25098;-68
2021/08/11 01:45:03;;;;;;;14.45;10.15;;;15.20;99.90;;;;;;4983941;28;25075;-69
2021/08/11 01:47:43;;;;;;;15.70;9.55;;;15.20;99.90;;;;;;4986955;28;25088;-68
2021/08/11 01:50:12;;;;;;;15.75;10.68;;;15.20;99.90;;;;;;4983883;28;25062;-67
2021/08/11 01:52:42;;;;;;;18.10;10.23;;;15.20;99.90;;;;;;4992292;28;25126;-68
2021/08/11 01:55:11;;;;;;;19.70;12.38;;;15.20;99.90;;;;;;4987099;28;25081;-67
2021/08/11 01:57:43;;;;;;;21.50;12.82;;;15.20;99.90;;;;;;4986761;28;25069;-68
2021/08/11 02:00:09;;;;;;;19.77;12.25;;;15.20;99.90;;;;;;4986921;28;25077;-67
2021/08/11 02:02:37;;;;;;;19.73;11.80;;;15.20;99.90;;;;;;4986678;28;25095;-67
2021/08/11 02:05:09;;;;;;;17.58;12.82;;;15.20;99.90;;;;;;4987034;28;25062;-69
2021/08/11 02:07:35;;;;;;;18.88;13.13;;;15.10;99.90;;;;;;4987291;28;25085;-66
2021/08/11 02:10:01;;;;;;;20.60;12.13;;;15.10;99.90;;;;;;4988978;28;25167;-66
2021/08/11 02:12:28;;;;;;;17.17;11.82;;;15.10;99.90;;;;;;4986873;28;25146;-68
2021/08/11 02:14:54;;;;;;;17.80;11.23;;;15.00;99.90;;;;;;4986619;28;25098;-67
2021/08/11 02:17:20;;;;;;;16.33;11.63;;;15.00;99.90;;;;;;4986231;28;25077;-68
2021/08/11 02:19:46;;;;;;;22.73;11.57;;;15.10;99.90;;;;;;4988390;28;25074;-67
2021/08/11 02:22:12;;;;;;;23.70;11.70;;;15.10;99.90;;;;;;4979108;28;24974;-68
2021/08/11 02:24:38;;;;;;;17.13;11.18;;;15.00;99.90;;;;;;4987499;28;25143;-68
2021/08/11 02:27:10;;;;;;;18.27;12.25;;;15.00;99.90;;;;;;4986787;28;25118;-68
2021/08/11 02:29:45;;;;;;;15.77;11.10;;;15.00;99.90;;;;;;4989955;28;25105;-68
2021/08/11 02:32:57;;;;;;;27.33;17.13;;;15.00;99.90;;;;;;5006815;28;25125;-68
2021/08/11 02:35:28;;;;;;;21.15;14.95;;;15.00;99.90;;;;;;4999479;28;25097;-67
2021/08/11 02:38:03;;;;;;;21.58;13.90;;;15.00;99.90;;;;;;4992648;28;25080;-68
2021/08/11 02:40:39;;;;;;;18.88;14.80;;;15.00;99.90;;;;;;4982224;28;25121;-68
2021/08/11 02:43:27;;;;;;;25.08;16.77;;;15.00;99.90;;;;;;4985163;28;25081;-67
2021/08/11 02:45:57;;;;;;;23.42;17.13;;;15.00;99.90;;;;;;5001405;28;25170;-67
2021/08/11 02:48:25;;;;;;;27.38;17.83;;;15.00;99.90;;;;;;4978046;28;25062;-66
2021/08/11 02:50:51;;;;;;;28.02;18.38;;;15.00;99.90;;;;;;4987125;28;25145;-68
2021/08/11 02:53:22;;;;;;;29.02;18.52;;;15.00;99.90;;;;;;4987033;28;25156;-67
2021/08/11 02:55:47;;;;;;;29.73;19.00;;;15.00;99.90;;;;;;4986283;28;25055;-67
2021/08/11 02:58:15;;;;;;;27.60;18.02;;;15.00;99.90;;;;;;4993271;28;25123;-67
2021/08/11 03:00:41;;;;;;;26.33;18.20;;;15.00;99.90;;;;;;4987617;28;25044;-67
2021/08/11 03:03:07;;;;;;;26.42;17.63;;;15.00;99.90;;;;;;4986424;28;25114;-66
2021/08/11 03:05:34;;;;;;;29.23;18.98;;;15.00;99.90;;;;;;4990667;28;25135;-65
2021/08/11 03:08:00;;;;;;;22.50;17.15;;;15.00;99.90;;;;;;4965630;28;25067;-67
2021/08/11 03:10:26;;;;;;;27.27;18.67;;;15.00;99.90;;;;;;4987828;28;25105;-68
2021/08/11 03:12:52;;;;;;;28.70;18.55;;;14.90;99.90;;;;;;4987552;28;25098;-67
2021/08/11 03:15:19;;;;;;;26.77;17.52;;;14.90;99.90;;;;;;4987757;28;25060;-66
2021/08/11 03:17:45;;;;;;;27.48;18.27;;;14.90;99.90;;;;;;4990532;28;25108;-68
2021/08/11 03:20:11;;;;;;;31.27;18.38;;;14.90;99.90;;;;;;4994625;28;25065;-68
2021/08/11 03:22:37;;;;;;;32.78;20.52;;;14.80;99.90;;;;;;4997671;28;25114;-66
2021/08/11 03:25:04;;;;;;;32.22;19.55;;;14.80;99.90;;;;;;4999096;28;25069;-67
2021/08/11 03:27:30;;;;;;;32.53;20.50;;;14.80;99.90;;;;;;4997839;28;25064;-68
2021/08/11 03:29:55;;;;;;;30.40;20.50;;;14.80;99.90;;;;;;4988276;28;25080;-67
2021/08/11 03:32:21;;;;;;;30.67;20.05;;;14.80;99.90;;;;;;4994984;28;25156;-66
2021/08/11 03:34:46;;;;;;;29.80;20.65;;;15.00;99.90;;;;;;4989822;28;25109;-67
2021/08/11 03:37:16;;;;;;;31.70;21.15;;;15.00;99.90;;;;;;4986726;28;25065;-68
2021/08/11 03:39:41;;;;;;;30.48;21.60;;;15.10;99.90;;;;;;4991296;28;25053;-67
2021/08/11 03:42:07;;;;;;;33.10;22.27;;;15.10;99.90;;;;;;4993493;28;25093;-67
2021/08/11 03:44:33;;;;;;;28.77;19.90;;;15.00;99.90;;;;;;4992075;28;25133;-67
2021/08/11 03:46:59;;;;;;;36.28;23.63;;;15.00;99.90;;;;;;4989497;28;25137;-68
2021/08/11 03:49:24;;;;;;;31.65;21.08;;;15.00;99.90;;;;;;4990284;28;25072;-68
2021/08/11 03:51:50;;;;;;;35.22;21.85;;;14.90;99.90;;;;;;5004247;28;25084;-66
2021/08/11 03:54:15;;;;;;;32.40;21.55;;;14.90;99.90;;;;;;4989724;28;25055;-66
2021/08/11 03:56:41;;;;;;;28.05;19.48;;;14.90;99.90;;;;;;4989587;28;25069;-68
2021/08/11 03:59:06;;;;;;;30.05;20.92;;;14.90;99.90;;;;;;4989064;28;25147;-68
2021/08/11 04:01:32;;;;;;;30.70;20.30;;;15.00;99.90;;;;;;4988884;28;25130;-67
2021/08/11 04:03:58;;;;;;;34.65;20.92;;;14.90;99.90;;;;;;5003898;28;25076;-67
2021/08/11 04:06:23;;;;;;;31.58;21.02;;;14.90;99.90;;;;;;5004780;28;25066;-67
2021/08/11 04:08:49;;;;;;;30.92;20.52;;;14.80;99.90;;;;;;5003797;28;25088;-66
2021/08/11 04:11:14;;;;;;;32.13;20.83;;;14.80;99.90;;;;;;4987562;28;25085;-66
2021/08/11 04:13:40;;;;;;;30.08;20.48;;;14.80;99.90;;;;;;4989167;28;25066;-67
2021/08/11 04:16:05;;;;;;;30.85;20.42;;;14.80;99.90;;;;;;4993765;28;25067;-66
2021/08/11 04:18:31;;;;;;;28.10;19.33;;;14.80;99.90;;;;;;4989620;28;25067;-67
2021/08/11 04:20:57;;;;;;;29.23;19.45;;;14.70;99.90;;;;;;4989993;28;25055;-67
2021/08/11 04:23:22;;;;;;;32.05;21.27;;;14.80;99.90;;;;;;4989409;28;25078;-66
2021/08/11 04:25:48;;;;;;;33.47;20.00;;;14.70;99.90;;;;;;4988202;28;25057;-67
2021/08/11 04:28:13;;;;;;;33.05;21.23;;;14.70;99.90;;;;;;4988801;28;25119;-66
2021/08/11 04:30:40;;;;;;;28.85;19.98;;;14.70;99.90;;;;;;4989493;28;25047;-67
2021/08/11 04:33:06;;;;;;;28.20;20.25;;;14.70;99.90;;;;;;4991300;28;25141;-67
2021/08/11 04:35:32;;;;;;;31.75;20.38;;;14.70;99.90;;;;;;4989805;28;25348;-68
2021/08/11 04:37:58;;;;;;;28.50;19.08;;;14.70;99.90;;;;;;4989850;28;25165;-66
2021/08/11 04:40:23;;;;;;;29.50;19.38;;;14.80;99.90;;;;;;4988439;28;25120;-66
2021/08/11 04:42:49;;;;;;;31.45;19.50;;;14.80;99.90;;;;;;5004107;28;25142;-65
2021/08/11 04:45:15;;;;;;;33.45;19.98;;;14.90;99.90;;;;;;4986755;28;25113;-66
2021/08/11 04:47:40;;;;;;;26.35;19.55;;;14.90;99.90;;;;;;4988218;28;25084;-66
2021/08/11 04:50:06;;;;;;;26.55;18.40;;;14.80;99.90;;;;;;4986775;28;25099;-68
2021/08/11 04:52:32;;;;;;;28.20;18.85;;;14.80;99.90;;;;;;4987617;28;25112;-67
2021/08/11 04:54:57;;;;;;;29.50;18.75;;;14.80;99.90;;;;;;4987970;28;25109;-68
2021/08/11 04:57:23;;;;;;;33.00;19.25;;;14.80;99.90;;;;;;4986765;28;25056;-66
2021/08/11 04:59:49;;;;;;;27.48;18.55;;;14.80;99.90;;;;;;4987701;28;25097;-67
2021/08/11 05:02:14;;;;;;;27.92;18.55;;;14.90;99.90;;;;;;4986764;28;25078;-67
2021/08/11 05:04:40;;;;;;;31.58;19.00;;;14.90;99.90;;;;;;4988506;28;25137;-67
2021/08/11 05:07:09;;;;;;;28.67;18.10;;;14.90;99.90;;;;;;4986371;28;25078;-67
2021/08/11 05:09:35;;;;;;;31.45;19.77;;;15.00;99.90;;;;;;4989016;28;25088;-67
2021/08/11 05:12:01;;;;;;;32.13;19.30;;;15.00;99.90;;;;;;4995020;28;25101;-68
2021/08/11 05:14:28;;;;;;;27.38;18.85;;;15.20;99.90;;;;;;4989789;28;25061;-67
2021/08/11 05:16:53;;;;;;;24.90;17.55;;;15.20;99.90;;;;;;4995290;28;25111;-66
2021/08/11 05:19:19;;;;;;;25.98;17.05;;;15.30;99.90;;;;;;4994621;28;25124;-66
2021/08/11 05:21:44;;;;;;;29.95;18.52;;;15.30;99.90;;;;;;5006329;28;25095;-67
2021/08/11 05:24:11;;;;;;;29.02;17.60;;;15.50;99.90;;;;;;5004617;28;25107;-67
2021/08/11 05:26:38;;;;;;;27.80;18.15;;;15.50;99.90;;;;;;4991737;28;25062;-66
2021/08/11 05:29:04;;;;;;;27.35;17.80;;;15.50;99.90;;;;;;4996473;28;25100;-68
2021/08/11 05:31:30;;;;;;;28.42;18.02;;;15.60;99.90;;;;;;4986556;28;25058;-66
2021/08/11 05:33:56;;;;;;;29.83;18.10;;;15.60;99.90;;;;;;4987214;28;25082;-66
2021/08/11 05:36:22;;;;;;;27.17;17.25;;;15.70;99.90;;;;;;4988970;28;25178;-66
2021/08/11 05:38:48;;;;;;;25.48;17.83;;;15.80;99.90;;;;;;4988750;28;25097;-67
2021/08/11 05:41:14;;;;;;;25.17;15.55;;;15.80;99.90;;;;;;4988005;28;25092;-66
2021/08/11 05:43:39;;;;;;;26.40;16.15;;;15.80;99.90;;;;;;4994741;28;25147;-66
2021/08/11 05:46:06;;;;;;;26.73;17.73;;;15.90;99.90;;;;;;4998690;28;25063;-68
2021/08/11 05:48:31;;;;;;;25.20;16.15;;;15.90;99.90;;;;;;5000380;28;25151;-67
2021/08/11 05:50:57;;;;;;;25.30;16.02;;;15.90;99.90;;;;;;5013815;28;25055;-68
2021/08/11 05:53:23;;;;;;;24.80;15.05;;;16.00;99.90;;;;;;5013767;28;25065;-68
2021/08/11 05:55:49;;;;;;;26.40;15.73;;;16.00;99.90;;;;;;5010071;28;25161;-68
2021/08/11 05:58:15;;;;;;;24.17;14.38;;;16.10;99.90;;;;;;5010064;28;25065;-67
2021/08/11 06:00:42;;;;;;;24.05;14.73;;;16.10;99.90;;;;;;4991340;28;25073;-69
2021/08/11 06:03:07;;;;;;;26.50;15.18;;;16.10;99.90;;;;;;4984895;28;25103;-68
2021/08/11 06:05:38;;;;;;;20.83;13.93;;;16.10;99.90;;;;;;4986873;28;25066;-67
2021/08/11 06:08:04;;;;;;;27.05;13.68;;;16.20;99.90;;;;;;4990535;28;25095;-68
2021/08/11 06:10:30;;;;;;;25.67;13.52;;;16.20;99.90;;;;;;4986317;28;25066;-67
2021/08/11 06:12:55;;;;;;;25.27;14.15;;;16.30;99.90;;;;;;4986738;28;25134;-68
2021/08/11 06:15:21;;;;;;;28.17;15.15;;;16.40;99.90;;;;;;4989421;28;25077;-67
2021/08/11 06:17:49;;;;;;;26.10;14.55;;;16.40;99.90;;;;;;4985058;28;25176;-68
2021/08/11 06:20:17;;;;;;;23.63;13.93;;;16.50;99.90;;;;;;4987527;28;25068;-67
2021/08/11 06:22:44;;;;;;;22.25;13.25;;;16.50;99.90;;;;;;4987038;28;25081;-67
2021/08/11 06:25:11;;;;;;;19.67;12.55;;;16.50;99.90;;;;;;5001288;28;25146;-68
2021/08/11 06:27:37;;;;;;;25.30;12.93;;;16.60;99.90;;;;;;4987359;28;25080;-67
2021/08/11 06:30:05;;;;;;;20.83;12.27;;;16.80;99.90;;;;;;4983305;28;25087;-67
2021/08/11 06:32:30;;;;;;;20.90;12.70;;;17.00;99.90;;;;;;4987199;28;25061;-67
2021/08/11 06:34:56;;;;;;;24.45;12.13;;;17.30;99.90;;;;;;4989245;28;25115;-66
2021/08/11 06:37:22;;;;;;;23.50;12.18;;;17.40;99.90;;;;;;4991299;28;25068;-66
2021/08/11 06:39:47;;;;;;;27.73;12.77;;;17.40;99.90;;;;;;5007444;28;25084;-66
2021/08/11 06:42:13;;;;;;;22.55;13.05;;;17.60;99.90;;;;;;4996243;28;25053;-70
2021/08/11 06:44:39;;;;;;;19.83;11.35;;;17.60;99.90;;;;;;4995085;28;25059;-68
2021/08/11 06:47:04;;;;;;;18.30;11.15;;;17.50;99.90;;;;;;4991366;28;25151;-69
2021/08/11 06:49:30;;;;;;;20.38;11.20;;;17.40;99.90;;;;;;4989479;28;25113;-68
2021/08/11 06:51:55;;;;;;;25.70;11.80;;;17.50;99.90;;;;;;4990473;28;25139;-68
2021/08/11 06:54:22;;;;;;;24.63;11.90;;;17.50;99.90;;;;;;4996521;28;25153;-67
2021/08/11 06:56:47;;;;;;;22.38;11.98;;;17.50;99.90;;;;;;4997396;28;25145;-68
2021/08/11 06:59:13;;;;;;;20.67;13.02;;;17.50;99.90;;;;;;4988964;28;25053;-68
2021/08/11 07:01:40;;;;;;;24.33;12.80;;;17.40;99.90;;;;;;4989721;28;25075;-68
2021/08/11 07:04:05;;;;;;;19.50;12.15;;;17.40;99.90;;;;;;5008158;28;25087;-69
2021/08/11 07:06:32;;;;;;;20.30;11.93;;;17.50;99.90;;;;;;4987710;28;25075;-70
2021/08/11 07:08:57;;;;;;;25.02;12.43;;;17.60;99.90;;;;;;4989821;28;25061;-67
2021/08/11 07:11:24;;;;;;;20.17;12.25;;;17.80;99.90;;;;;;4994232;28;25076;-67
2021/08/11 07:13:50;;;;;;;20.95;12.98;;;17.80;99.90;;;;;;5004298;28;25121;-68
2021/08/11 07:16:16;;;;;;;20.88;13.73;;;17.80;99.90;;;;;;5005294;28;25087;-68
2021/08/11 07:18:42;;;;;;;21.17;13.45;;;17.90;99.90;;;;;;4988898;28;25069;-70
2021/08/11 07:21:08;;;;;;;25.27;14.50;;;18.00;99.90;;;;;;4988806;28;25099;-67
2021/08/11 07:23:33;;;;;;;22.00;13.85;;;18.10;99.90;;;;;;4988543;28;25089;-68
2021/08/11 07:25:59;;;;;;;27.17;15.48;;;18.30;99.90;;;;;;4988078;28;25084;-68
2021/08/11 07:28:25;;;;;;;22.25;14.65;;;18.40;99.90;;;;;;4993118;28;25117;-69
2021/08/11 07:30:50;;;;;;;26.60;14.30;;;18.30;99.90;;;;;;4988691;28;25155;-67
2021/08/11 07:33:16;;;;;;;22.65;13.48;;;18.40;99.90;;;;;;4989325;28;25138;-68
2021/08/11 07:35:43;;;;;;;24.92;13.88;;;18.50;99.90;;;;;;4989872;28;25137;-68
2021/08/11 07:38:09;;;;;;;23.02;13.65;;;18.70;99.90;;;;;;4990669;28;25074;-69
2021/08/11 07:40:35;;;;;;;25.77;12.38;;;19.00;99.90;;;;;;4994547;28;25058;-67
2021/08/11 07:43:03;;;;;;;23.17;12.55;;;19.00;99.90;;;;;;4989951;28;25086;-67
2021/08/11 07:45:30;;;;;;;19.88;13.20;;;19.00;99.90;;;;;;4988904;28;25080;-66
2021/08/11 07:47:56;;;;;;;18.92;11.93;;;19.20;99.90;;;;;;4988774;28;25090;-68
2021/08/11 07:50:29;;;;;;;19.30;11.50;;;19.30;99.90;;;;;;4990385;28;25098;-68
2021/08/11 07:52:56;;;;;;;24.20;12.50;;;19.60;99.90;;;;;;4988760;28;25072;-68
2021/08/11 07:55:23;;;;;;;20.83;13.30;;;19.50;99.90;;;;;;5005938;28;25114;-68
2021/08/11 07:57:48;;;;;;;20.85;11.80;;;19.70;99.90;;;;;;4990346;28;25078;-69
2021/08/11 08:00:16;;;;;;;24.73;12.43;;;19.90;99.90;;;;;;4992374;28;25067;-68
2021/08/11 08:02:42;;;;;;;17.92;11.45;;;20.00;99.90;;;;;;4992687;28;25067;-69
2021/08/11 08:05:09;;;;;;;20.65;10.93;;;20.30;99.90;;;;;;4991062;28;25074;-68
2021/08/11 08:07:34;;;;;;;13.02;9.88;;;20.20;99.90;;;;;;4997571;28;25066;-67
2021/08/11 08:10:02;;;;;;;19.60;10.27;;;20.00;99.90;;;;;;4988824;28;25059;-68
2021/08/11 08:12:28;;;;;;;23.23;11.18;;;19.80;99.90;;;;;;5003596;28;25073;-71
2021/08/11 08:14:53;;;;;;;22.75;10.48;;;19.50;99.90;;;;;;4988386;28;25097;-67
2021/08/11 08:17:19;;;;;;;23.05;10.88;;;19.50;99.90;;;;;;4990595;28;25066;-68
2021/08/11 08:19:44;;;;;;;15.65;10.02;;;19.40;99.90;;;;;;4991849;28;25085;-67
2021/08/11 08:22:10;;;;;;;19.50;11.07;;;19.30;99.90;;;;;;5005198;28;25060;-68
2021/08/11 08:24:36;;;;;;;19.33;10.23;;;19.30;99.90;;;;;;4990722;28;25092;-69
2021/08/11 08:27:05;;;;;;;14.75;9.82;;;19.20;99.90;;;;;;4991703;28;25139;-67
2021/08/11 08:29:31;;;;;;;17.58;9.55;;;19.10;99.90;;;;;;4993096;28;25054;-69
2021/08/11 08:31:56;;;;;;;17.35;8.15;;;19.20;99.90;;;;;;4989613;28;25078;-69
2021/08/11 08:34:22;;;;;;;15.32;8.40;;;19.60;99.90;;;;;;4989193;28;25109;-68
2021/08/11 08:36:47;;;;;;;24.33;8.60;;;19.80;99.90;;;;;;5000708;28;25082;-68
2021/08/11 08:39:13;;;;;;;16.05;8.73;;;20.00;99.90;;;;;;4991978;28;25092;-69
2021/08/11 08:41:42;;;;;;;26.33;9.07;;;20.00;99.90;;;;;;4989759;28;25093;-69
2021/08/11 08:44:08;;;;;;;12.35;6.90;;;20.00;99.90;;;;;;4988504;28;25131;-69
2021/08/11 08:46:34;;;;;;;16.92;7.18;;;20.10;99.90;;;;;;4987902;28;25141;-70
2021/08/11 08:49:02;;;;;;;16.27;7.05;;;20.30;99.90;;;;;;4990064;28;25067;-69
2021/08/11 08:51:30;;;;;;;14.30;6.57;;;20.30;99.90;;;;;;4988799;28;25065;-68
2021/08/11 08:53:56;;;;;;;9.43;5.82;;;20.40;99.90;;;;;;4989809;28;25101;-69
2021/08/11 08:56:21;;;;;;;13.30;6.47;;;20.60;99.90;;;;;;4996826;28;25126;-68
2021/08/11 08:58:47;;;;;;;10.45;6.40;;;20.70;99.90;;;;;;4988725;28;25099;-69
2021/08/11 09:01:14;;;;;;;13.43;6.38;;;20.90;99.90;;;;;;4988470;28;25054;-68
2021/08/11 09:03:41;;;;;;;14.20;6.22;;;21.00;99.90;;;;;;4995021;28;25076;-69
2021/08/11 09:06:06;;;;;;;15.30;5.70;;;21.20;99.90;;;;;;4997019;28;25104;-68
2021/08/11 09:08:32;;;;;;;15.10;5.97;;;21.40;99.90;;;;;;4992160;28;25137;-68
2021/08/11 09:10:57;;;;;;;14.80;6.10;;;21.30;99.90;;;;;;4996723;28;25107;-69
2021/08/11 09:13:23;;;;;;;11.07;6.00;;;21.20;99.90;;;;;;4988768;28;25079;-69
2021/08/11 09:15:51;;;;;;;12.20;6.00;;;21.20;99.90;;;;;;4987302;28;25074;-69
2021/08/11 09:18:18;;;;;;;11.20;6.88;;;21.20;99.90;;;;;;4988896;28;25079;-70
2021/08/11 09:20:48;;;;;;;15.20;5.88;;;21.40;99.90;;;;;;5001866;28;25131;-67
2021/08/11 09:23:15;;;;;;;15.85;5.50;;;20.90;99.90;;;;;;4988961;28;25065;-69
2021/08/11 09:25:59;;;;;;;13.32;6.05;;;21.10;99.90;;;;;;4988301;28;25092;-68
2021/08/11 09:28:25;;;;;;;13.07;5.78;;;21.30;99.90;;;;;;4983722;28;25082;-72
2021/08/11 09:30:50;;;;;;;12.70;5.68;;;21.30;99.90;;;;;;4988983;28;25085;-69
2021/08/11 09:33:23;;;;;;;12.15;6.43;;;21.30;99.90;;;;;;4982987;28;25183;-70
2021/08/11 09:35:48;;;;;;;8.63;4.20;;;21.30;99.90;;;;;;4995416;28;25094;-68
2021/08/11 09:38:16;;;;;;;12.25;4.53;;;21.30;99.90;;;;;;4988705;28;25069;-69
2021/08/11 09:40:42;;;;;;;14.80;4.57;;;21.30;99.90;;;;;;4988739;28;25067;-68
2021/08/11 09:43:30;;;;;;;12.25;4.68;;;21.50;99.90;;;;;;4989391;28;25117;-70
2021/08/11 09:45:56;;;;;;;12.55;5.45;;;21.70;99.90;;;;;;4989245;28;25075;-69
2021/08/11 09:48:25;;;;;;;9.07;4.28;;;21.60;99.90;;;;;;4989068;28;25057;-70
2021/08/11 09:51:00;;;;;;;13.82;3.80;;;21.30;99.90;;;;;;5002352;28;25062;-70
2021/08/11 09:53:29;;;;;;;12.73;4.85;;;21.30;99.90;;;;;;4996264;28;25120;-67
2021/08/11 09:56:06;;;;;;;10.35;5.03;;;21.00;99.90;;;;;;5006406;28;25075;-68
2021/08/11 09:58:45;;;;;;;14.23;4.32;;;21.00;99.90;;;;;;4994214;28;25073;-68
2021/08/11 10:01:10;;;;;;;7.95;3.88;;;21.30;99.90;;;;;;5004221;28;25123;-69
2021/08/11 10:03:53;;;;;;;8.68;4.80;;;21.20;99.90;;;;;;5003800;28;25084;-67
2021/08/11 10:06:34;;;;;;;7.22;4.75;;;21.00;99.90;;;;;;4986440;28;25094;-68
2021/08/11 10:09:16;;;;;;;12.73;4.63;;;20.90;99.90;;;;;;4987224;28;25134;-70
2021/08/11 10:11:47;;;;;;;7.72;4.00;;;21.30;99.90;;;;;;4986585;28;25107;-68
2021/08/11 10:14:15;;;;;;;10.05;3.92;;;21.60;99.90;;;;;;5003741;28;25077;-68
2021/08/11 10:16:42;;;;;;;10.75;4.30;;;21.70;99.90;;;;;;4994444;28;25136;-69
2021/08/11 10:19:09;;;;;;;7.28;4.53;;;21.40;99.90;;;;;;4992207;28;25060;-69
2021/08/11 10:21:42;;;;;;;9.02;3.70;;;21.50;99.90;;;;;;4992740;28;25107;-68
2021/08/11 10:24:09;;;;;;;9.23;4.18;;;21.60;99.90;;;;;;4992583;28;25150;-69
2021/08/11 10:26:35;;;;;;;14.05;5.07;;;21.80;99.90;;;;;;4990268;28;25131;-68
2021/08/11 10:29:03;;;;;;;10.70;5.07;;;21.80;99.90;;;;;;4992118;28;25114;-68
2021/08/11 10:31:29;;;;;;;8.90;5.18;;;21.80;99.90;;;;;;4992966;28;25108;-67
2021/08/11 10:33:56;;;;;;;10.38;4.00;;;21.50;99.90;;;;;;4991056;28;25104;-68
2021/08/11 10:36:22;;;;;;;7.63;4.30;;;21.60;99.90;;;;;;4989793;28;25066;-69
2021/08/11 10:38:48;;;;;;;9.07;5.20;;;21.80;99.90;;;;;;4995861;28;25075;-68
2021/08/11 10:41:13;;;;;;;8.90;4.40;;;21.90;99.90;;;;;;4988205;28;25075;-70
2021/08/11 10:43:40;;;;;;;8.73;4.90;;;22.00;99.90;;;;;;4993081;28;25067;-69
2021/08/11 10:46:12;;;;;;;8.70;5.13;;;21.90;99.90;;;;;;4987002;28;25081;-68
2021/08/11 10:48:38;;;;;;;8.57;4.32;;;22.00;99.90;;;;;;4983582;28;25073;-69
2021/08/11 10:51:03;;;;;;;8.73;3.95;;;22.00;99.90;;;;;;4985962;28;25143;-68
2021/08/11 10:53:29;;;;;;;7.55;4.53;;;22.10;99.90;;;;;;4986843;28;25087;-69
2021/08/11 10:55:56;;;;;;;7.78;4.38;;;22.20;99.90;;;;;;4991241;28;25087;-69
2021/08/11 10:58:44;;;;;;;9.43;4.28;;;22.20;99.90;;;;;;4990251;28;25061;-68
2021/08/11 11:01:31;;;;;;;7.90;4.03;;;22.20;99.90;;;;;;4987696;28;25105;-67
2021/08/11 11:03:57;;;;;;;6.07;4.32;;;22.20;99.90;;;;;;4988431;28;25126;-69
2021/08/11 11:06:23;;;;;;;8.90;3.72;;;22.30;99.90;;;;;;4989234;28;25053;-69
2021/08/11 11:08:48;;;;;;;7.75;4.25;;;22.30;99.90;;;;;;4986045;28;25052;-69
2021/08/11 11:11:36;;;;;;;7.40;4.38;;;22.40;99.90;;;;;;5001803;28;25091;-68
2021/08/11 11:14:04;;;;;;;10.80;3.47;;;22.50;99.90;;;;;;4984403;28;25144;-69
2021/08/11 11:17:02;;;;;;;10.85;4.65;;;22.60;99.90;;;;;;4999938;28;25082;-69
2021/08/11 11:19:28;;;;;;;7.43;3.95;;;22.70;99.90;;;;;;4999779;28;25096;-71
2021/08/11 11:21:54;;;;;;;8.30;3.58;;;22.80;99.90;;;;;;4985845;28;25042;-70
2021/08/11 11:24:48;;;;;;;8.43;3.50;;;22.70;99.90;;;;;;4984324;28;25084;-69
2021/08/11 11:27:39;;;;;;;7.55;4.05;;;22.80;99.90;;;;;;5003169;28;25092;-67
2021/08/11 11:30:13;;;;;;;6.95;3.53;;;22.90;99.90;;;;;;4990819;28;25063;-69
2021/08/11 11:32:39;;;;;;;4.78;3.55;;;22.80;99.90;;;;;;4988096;28;25095;-70
2021/08/11 11:35:19;;;;;;;6.78;3.70;;;23.00;99.90;;;;;;4981563;28;25096;-70
2021/08/11 11:38:04;;;;;;;5.68;2.97;;;23.30;99.90;;;;;;4992927;28;25061;-69
2021/08/11 11:40:30;;;;;;;4.63;3.15;;;23.40;99.90;;;;;;4996541;28;25157;-68
2021/08/11 11:43:24;;;;;;;5.65;3.58;;;23.50;99.90;;;;;;4992485;28;25059;-69
2021/08/11 11:45:50;;;;;;;7.60;3.15;;;23.30;99.90;;;;;;4989378;28;24941;-69
2021/08/11 11:48:16;;;;;;;8.95;3.65;;;23.20;99.90;;;;;;4990592;28;25086;-71
2021/08/11 11:50:44;;;;;;;5.47;4.00;;;23.30;99.90;;;;;;4993367;28;25132;-70
2021/08/11 11:53:26;;;;;;;5.43;3.65;;;23.60;99.90;;;;;;5007341;28;25103;-69
2021/08/11 11:55:52;;;;;;;9.60;3.67;;;23.60;99.90;;;;;;5002785;28;25106;-69
2021/08/11 11:58:24;;;;;;;7.57;3.30;;;23.40;99.90;;;;;;4992251;28;25119;-69
2021/08/11 12:01:05;;;;;;;4.82;3.30;;;23.60;99.90;;;;;;4987419;28;25073;-70
2021/08/11 12:03:36;;;;;;;5.80;3.33;;;23.80;99.90;;;;;;4992219;28;25104;-70
2021/08/11 12:06:02;;;;;;;6.65;3.72;;;24.10;99.90;;;;;;4994889;28;25108;-69
2021/08/11 12:08:28;;;;;;;6.97;3.40;;;24.20;99.90;;;;;;4990526;28;25055;-71
2021/08/11 12:11:12;;;;;;;13.88;4.28;;;24.10;99.90;;;;;;4990319;28;25059;-70
2021/08/11 12:13:46;;;;;;;4.78;3.25;;;24.00;99.90;;;;;;4995584;28;25071;-70
2021/08/11 12:16:15;;;;;;;5.25;3.00;;;23.80;99.90;;;;;;4990138;28;25060;-69
2021/08/11 12:18:43;;;;;;;8.38;3.90;;;24.00;99.90;;;;;;4990799;28;25090;-70
2021/08/11 12:21:10;;;;;;;7.15;4.03;;;23.80;99.90;;;;;;4991051;28;25052;-69
2021/08/11 12:23:35;;;;;;;9.15;4.75;;;24.00;99.90;;;;;;4997372;28;25083;-70
2021/08/11 12:26:12;;;;;;;10.48;4.57;;;23.80;99.90;;;;;;5015553;28;25151;-71
2021/08/11 12:28:37;;;;;;;10.23;4.40;;;24.10;99.90;;;;;;5002997;28;25054;-70
2021/08/11 12:31:18;;;;;;;10.93;6.30;;;24.30;99.90;;;;;;4998537;28;25074;-70
2021/08/11 12:33:45;;;;;;;13.88;6.95;;;24.20;99.90;;;;;;4994233;28;25065;-70
2021/08/11 12:36:17;;;;;;;11.23;6.55;;;24.30;99.90;;;;;;4992381;28;25102;-69
2021/08/11 12:38:55;;;;;;;;;;;24.10;99.90;;;;;;4985373;28;25065;-70